METAR EVRA 060020Z 20012KT 9999 BKN014 OVC023 05/03 Q1004 R18/190095 NOSIG =

ATC Feedback

If you've had an experience which you would like to give us feedback about, you're encouraged to fill out our online form, available HERE.

Controllers Online

PositionControllerOnline
No controllers currently online

Booked ATC Today

Position Start End
EVRA_TWR 17:00 21:00
EVRA_M_TWR 17:00 21:00
EVRR_CTR 17:00 21:00
* Times are UTC

The time is now

UTC: 

Local: 

Latvia vACC on twitter

Official vACC of:

  

Latvia vACC on Facebook